sensor_id;sensor_type;location;lat;lon;timestamp;pressure;altitude;pressure_sealevel;temperature;humidity
7264;BME280;3673;52.480;13.348;2023-04-09T00:02:23;102253.22;;;12.59;45.89
7264;BME280;3673;52.480;13.348;2023-04-09T00:04:50;102250.53;;;12.56;45.64
7264;BME280;3673;52.480;13.348;2023-04-09T00:07:19;102246.22;;;12.61;45.96
7264;BME280;3673;52.480;13.348;2023-04-09T00:09:45;102253.78;;;12.40;46.41
7264;BME280;3673;52.480;13.348;2023-04-09T00:12:12;102249.34;;;12.37;46.11
7264;BME280;3673;52.480;13.348;2023-04-09T00:14:39;102249.81;;;12.11;46.83
7264;BME280;3673;52.480;13.348;2023-04-09T00:17:05;102243.44;;;11.97;47.34
7264;BME280;3673;52.480;13.348;2023-04-09T00:19:32;102249.47;;;11.93;47.43
7264;BME280;3673;52.480;13.348;2023-04-09T00:21:59;102241.16;;;11.70;47.81
7264;BME280;3673;52.480;13.348;2023-04-09T00:24:27;102248.09;;;11.66;48.14
7264;BME280;3673;52.480;13.348;2023-04-09T00:26:54;102254.84;;;11.54;48.99
7264;BME280;3673;52.480;13.348;2023-04-09T00:29:21;102253.47;;;11.72;48.70
7264;BME280;3673;52.480;13.348;2023-04-09T00:31:47;102261.50;;;11.80;48.65
7264;BME280;3673;52.480;13.348;2023-04-09T00:34:14;102255.53;;;11.45;49.06
7264;BME280;3673;52.480;13.348;2023-04-09T00:36:41;102246.06;;;11.52;48.96
7264;BME280;3673;52.480;13.348;2023-04-09T00:39:08;102245.44;;;11.65;48.88
7264;BME280;3673;52.480;13.348;2023-04-09T00:41:36;102249.88;;;11.69;48.88
7264;BME280;3673;52.480;13.348;2023-04-09T00:44:02;102245.72;;;11.78;48.60
7264;BME280;3673;52.480;13.348;2023-04-09T00:46:30;102240.06;;;11.57;48.94
7264;BME280;3673;52.480;13.348;2023-04-09T00:48:58;102244.72;;;11.70;49.42
7264;BME280;3673;52.480;13.348;2023-04-09T00:51:25;102243.03;;;11.75;49.21
7264;BME280;3673;52.480;13.348;2023-04-09T00:53:54;102248.50;;;11.86;48.89
7264;BME280;3673;52.480;13.348;2023-04-09T00:56:21;102246.81;;;11.91;48.96
7264;BME280;3673;52.480;13.348;2023-04-09T00:58:50;102242.16;;;11.75;48.87
7264;BME280;3673;52.480;13.348;2023-04-09T01:01:17;102251.19;;;11.46;49.74
7264;BME280;3673;52.480;13.348;2023-04-09T01:03:43;102254.22;;;11.23;50.30
7264;BME280;3673;52.480;13.348;2023-04-09T01:06:19;102237.44;;;11.14;50.28
7264;BME280;3673;52.480;13.348;2023-04-09T01:08:52;102244.75;;;11.30;50.13
7264;BME280;3673;52.480;13.348;2023-04-09T01:11:31;102246.66;;;11.38;49.97
7264;BME280;3673;52.480;13.348;2023-04-09T01:14:11;102240.91;;;11.14;50.46
7264;BME280;3673;52.480;13.348;2023-04-09T01:16:43;102247.50;;;10.96;50.82
7264;BME280;3673;52.480;13.348;2023-04-09T01:19:27;102244.53;;;11.19;50.67
7264;BME280;3673;52.480;13.348;2023-04-09T01:21:59;102250.47;;;11.54;50.04
7264;BME280;3673;52.480;13.348;2023-04-09T01:24:40;102245.56;;;11.27;50.24
7264;BME280;3673;52.480;13.348;2023-04-09T01:27:11;102259.47;;;11.23;50.00
7264;BME280;3673;52.480;13.348;2023-04-09T01:29:46;102243.47;;;11.11;50.07
7264;BME280;3673;52.480;13.348;2023-04-09T01:32:16;102247.56;;;10.97;50.71
7264;BME280;3673;52.480;13.348;2023-04-09T01:34:46;102241.19;;;10.86;50.85
7264;BME280;3673;52.480;13.348;2023-04-09T01:37:14;102249.38;;;11.01;50.94
7264;BME280;3673;52.480;13.348;2023-04-09T01:39:42;102251.19;;;11.04;50.72
7264;BME280;3673;52.480;13.348;2023-04-09T01:42:10;102254.00;;;11.13;50.75
7264;BME280;3673;52.480;13.348;2023-04-09T01:44:39;102249.72;;;11.16;50.75
7264;BME280;3673;52.480;13.348;2023-04-09T01:47:07;102249.72;;;11.16;50.24
7264;BME280;3673;52.480;13.348;2023-04-09T01:49:35;102252.28;;;11.15;50.21
7264;BME280;3673;52.480;13.348;2023-04-09T01:52:03;102258.22;;;11.06;50.32
7264;BME280;3673;52.480;13.348;2023-04-09T01:54:30;102253.22;;;11.17;49.99
7264;BME280;3673;52.480;13.348;2023-04-09T01:56:57;102261.09;;;11.17;50.65
7264;BME280;3673;52.480;13.348;2023-04-09T01:59:24;102253.19;;;11.15;50.69
7264;BME280;3673;52.480;13.348;2023-04-09T02:01:57;102248.09;;;11.23;50.47
7264;BME280;3673;52.480;13.348;2023-04-09T02:04:32;102250.78;;;11.26;50.31
7264;BME280;3673;52.480;13.348;2023-04-09T02:07:05;102257.44;;;11.10;50.44
7264;BME280;3673;52.480;13.348;2023-04-09T02:09:38;102253.13;;;11.12;50.70
7264;BME280;3673;52.480;13.348;2023-04-09T02:12:09;102261.09;;;11.18;50.15
7264;BME280;3673;52.480;13.348;2023-04-09T02:14:36;102257.41;;;11.09;50.64
7264;BME280;3673;52.480;13.348;2023-04-09T02:17:05;102263.28;;;10.99;50.86
7264;BME280;3673;52.480;13.348;2023-04-09T02:19:43;102256.22;;;10.95;51.21
7264;BME280;3673;52.480;13.348;2023-04-09T02:22:11;102249.31;;;10.98;51.29
7264;BME280;3673;52.480;13.348;2023-04-09T02:24:39;102259.66;;;10.92;51.32
7264;BME280;3673;52.480;13.348;2023-04-09T02:27:06;102258.94;;;10.99;51.45
7264;BME280;3673;52.480;13.348;2023-04-09T02:29:33;102258.16;;;11.03;51.14
7264;BME280;3673;52.480;13.348;2023-04-09T02:32:00;102255.66;;;11.09;51.05
7264;BME280;3673;52.480;13.348;2023-04-09T02:34:28;102268.34;;;10.91;51.23
7264;BME280;3673;52.480;13.348;2023-04-09T02:36:55;102273.28;;;10.77;51.57
7264;BME280;3673;52.480;13.348;2023-04-09T02:39:22;102261.44;;;10.95;51.03
7264;BME280;3673;52.480;13.348;2023-04-09T02:41:49;102270.38;;;10.64;51.20
7264;BME280;3673;52.480;13.348;2023-04-09T02:44:15;102269.63;;;10.69;51.22
7264;BME280;3673;52.480;13.348;2023-04-09T02:46:43;102269.88;;;10.81;51.27
7264;BME280;3673;52.480;13.348;2023-04-09T02:49:10;102260.34;;;10.83;51.09
7264;BME280;3673;52.480;13.348;2023-04-09T02:51:38;102264.31;;;10.66;51.32
7264;BME280;3673;52.480;13.348;2023-04-09T02:54:05;102260.94;;;10.72;51.45
7264;BME280;3673;52.480;13.348;2023-04-09T02:56:31;102251.56;;;10.81;51.19
7264;BME280;3673;52.480;13.348;2023-04-09T02:58:58;102256.78;;;10.80;51.19
7264;BME280;3673;52.480;13.348;2023-04-09T03:01:25;102265.53;;;10.80;51.30
7264;BME280;3673;52.480;13.348;2023-04-09T03:03:52;102261.31;;;10.87;51.25
7264;BME280;3673;52.480;13.348;2023-04-09T03:06:18;102254.31;;;10.88;51.02
7264;BME280;3673;52.480;13.348;2023-04-09T03:08:46;102258.53;;;10.81;51.21
7264;BME280;3673;52.480;13.348;2023-04-09T03:11:13;102248.22;;;10.89;50.84
7264;BME280;3673;52.480;13.348;2023-04-09T03:13:40;102250.59;;;10.76;51.38
7264;BME280;3673;52.480;13.348;2023-04-09T03:16:07;102257.63;;;10.79;51.49
7264;BME280;3673;52.480;13.348;2023-04-09T03:18:34;102252.50;;;10.83;51.65
7264;BME280;3673;52.480;13.348;2023-04-09T03:21:04;102240.50;;;10.95;51.71
7264;BME280;3673;52.480;13.348;2023-04-09T03:23:32;102253.66;;;10.96;51.51
7264;BME280;3673;52.480;13.348;2023-04-09T03:26:01;102238.78;;;10.95;51.63
7264;BME280;3673;52.480;13.348;2023-04-09T03:28:28;102246.69;;;10.97;51.33
7264;BME280;3673;52.480;13.348;2023-04-09T03:30:55;102238.81;;;10.97;51.16
7264;BME280;3673;52.480;13.348;2023-04-09T03:33:22;102247.25;;;10.83;50.56
7264;BME280;3673;52.480;13.348;2023-04-09T03:35:50;102252.34;;;10.77;50.67
7264;BME280;3673;52.480;13.348;2023-04-09T03:38:16;102246.13;;;10.72;50.84
7264;BME280;3673;52.480;13.348;2023-04-09T03:40:44;102248.84;;;10.77;50.89
7264;BME280;3673;52.480;13.348;2023-04-09T03:43:12;102251.31;;;10.71;51.38
7264;BME280;3673;52.480;13.348;2023-04-09T03:45:38;102246.25;;;10.78;50.99
7264;BME280;3673;52.480;13.348;2023-04-09T03:48:05;102239.19;;;10.74;51.02
7264;BME280;3673;52.480;13.348;2023-04-09T03:50:37;102247.19;;;10.80;51.27
7264;BME280;3673;52.480;13.348;2023-04-09T03:53:05;102242.53;;;10.67;51.40
7264;BME280;3673;52.480;13.348;2023-04-09T03:55:32;102242.09;;;10.49;51.80
7264;BME280;3673;52.480;13.348;2023-04-09T03:57:59;102240.56;;;10.57;52.25
7264;BME280;3673;52.480;13.348;2023-04-09T04:00:27;102239.09;;;10.70;52.09
7264;BME280;3673;52.480;13.348;2023-04-09T04:02:54;102251.25;;;10.68;52.24
7264;BME280;3673;52.480;13.348;2023-04-09T04:05:22;102243.56;;;10.75;52.74
7264;BME280;3673;52.480;13.348;2023-04-09T04:07:50;102253.41;;;10.48;54.00
7264;BME280;3673;52.480;13.348;2023-04-09T04:10:17;102242.69;;;10.75;54.05
7264;BME280;3673;52.480;13.348;2023-04-09T04:12:44;102249.50;;;10.68;54.45
7264;BME280;3673;52.480;13.348;2023-04-09T04:15:11;102248.50;;;10.62;54.84
7264;BME280;3673;52.480;13.348;2023-04-09T04:17:39;102257.34;;;10.67;54.40
7264;BME280;3673;52.480;13.348;2023-04-09T04:20:07;102250.78;;;10.47;55.10
7264;BME280;3673;52.480;13.348;2023-04-09T04:22:34;102257.00;;;10.17;55.93
7264;BME280;3673;52.480;13.348;2023-04-09T04:25:02;102248.00;;;10.41;55.39
7264;BME280;3673;52.480;13.348;2023-04-09T04:27:29;102247.22;;;10.45;55.66
7264;BME280;3673;52.480;13.348;2023-04-09T04:29:56;102247.06;;;10.39;55.72
7264;BME280;3673;52.480;13.348;2023-04-09T04:32:24;102256.66;;;10.38;55.67
7264;BME280;3673;52.480;13.348;2023-04-09T04:34:53;102260.22;;;10.40;55.64
7264;BME280;3673;52.480;13.348;2023-04-09T04:37:20;102263.44;;;10.30;55.88
7264;BME280;3673;52.480;13.348;2023-04-09T04:39:47;102261.41;;;10.18;56.13
7264;BME280;3673;52.480;13.348;2023-04-09T04:42:14;102270.13;;;9.86;56.58
7264;BME280;3673;52.480;13.348;2023-04-09T04:44:41;102269.22;;;9.54;57.99
7264;BME280;3673;52.480;13.348;2023-04-09T04:47:08;102264.72;;;9.47;58.26
7264;BME280;3673;52.480;13.348;2023-04-09T04:49:35;102268.09;;;9.45;59.10
7264;BME280;3673;52.480;13.348;2023-04-09T04:52:03;102270.28;;;9.29;59.34
7264;BME280;3673;52.480;13.348;2023-04-09T04:54:30;102269.72;;;9.41;59.23
7264;BME280;3673;52.480;13.348;2023-04-09T04:56:57;102270.38;;;9.32;59.53
7264;BME280;3673;52.480;13.348;2023-04-09T04:59:24;102274.44;;;9.54;59.10
7264;BME280;3673;52.480;13.348;2023-04-09T05:01:51;102287.44;;;9.51;59.56
7264;BME280;3673;52.480;13.348;2023-04-09T05:04:17;102280.56;;;9.55;59.46
7264;BME280;3673;52.480;13.348;2023-04-09T05:06:44;102289.94;;;9.47;59.97
7264;BME280;3673;52.480;13.348;2023-04-09T05:09:13;102286.44;;;9.16;61.19
7264;BME280;3673;52.480;13.348;2023-04-09T05:11:40;102292.09;;;9.31;60.99
7264;BME280;3673;52.480;13.348;2023-04-09T05:14:07;102290.50;;;9.68;59.99
7264;BME280;3673;52.480;13.348;2023-04-09T05:16:33;102288.56;;;9.61;60.32
7264;BME280;3673;52.480;13.348;2023-04-09T05:19:00;102296.88;;;9.46;61.24
7264;BME280;3673;52.480;13.348;2023-04-09T05:21:27;102298.69;;;9.49;60.74
7264;BME280;3673;52.480;13.348;2023-04-09T05:23:54;102291.09;;;9.56;60.68
7264;BME280;3673;52.480;13.348;2023-04-09T05:26:22;102293.09;;;9.66;60.62
7264;BME280;3673;52.480;13.348;2023-04-09T05:28:49;102295.16;;;9.78;60.45
7264;BME280;3673;52.480;13.348;2023-04-09T05:31:16;102299.09;;;9.94;59.86
7264;BME280;3673;52.480;13.348;2023-04-09T05:33:44;102302.09;;;9.76;60.17
7264;BME280;3673;52.480;13.348;2023-04-09T05:36:15;102297.00;;;9.82;59.37
7264;BME280;3673;52.480;13.348;2023-04-09T05:38:42;102301.66;;;9.92;59.78
7264;BME280;3673;52.480;13.348;2023-04-09T05:41:09;102302.22;;;10.13;59.29
7264;BME280;3673;52.480;13.348;2023-04-09T05:43:37;102299.41;;;10.06;59.21
7264;BME280;3673;52.480;13.348;2023-04-09T05:46:04;102304.34;;;9.95;59.52
7264;BME280;3673;52.480;13.348;2023-04-09T05:48:34;102307.09;;;10.00;59.84
7264;BME280;3673;52.480;13.348;2023-04-09T05:51:01;102301.13;;;10.05;59.09
7264;BME280;3673;52.480;13.348;2023-04-09T05:53:28;102302.66;;;9.97;59.49
7264;BME280;3673;52.480;13.348;2023-04-09T05:55:55;102286.69;;;9.87;58.99
7264;BME280;3673;52.480;13.348;2023-04-09T05:58:22;102304.84;;;9.82;59.55
7264;BME280;3673;52.480;13.348;2023-04-09T06:00:50;102302.56;;;9.94;59.68
7264;BME280;3673;52.480;13.348;2023-04-09T06:03:17;102303.78;;;9.74;60.16
7264;BME280;3673;52.480;13.348;2023-04-09T06:05:44;102313.00;;;9.31;61.38
7264;BME280;3673;52.480;13.348;2023-04-09T06:08:12;102307.34;;;9.16;61.84
7264;BME280;3673;52.480;13.348;2023-04-09T06:10:39;102307.44;;;9.21;61.84
7264;BME280;3673;52.480;13.348;2023-04-09T06:13:06;102313.19;;;9.09;61.91
7264;BME280;3673;52.480;13.348;2023-04-09T06:15:33;102302.09;;;9.16;62.24
7264;BME280;3673;52.480;13.348;2023-04-09T06:18:02;102301.38;;;9.52;61.40
7264;BME280;3673;52.480;13.348;2023-04-09T06:20:29;102292.88;;;9.90;60.17
7264;BME280;3673;52.480;13.348;2023-04-09T06:22:56;102306.19;;;9.99;59.80
7264;BME280;3673;52.480;13.348;2023-04-09T06:25:23;102298.00;;;10.17;59.34
7264;BME280;3673;52.480;13.348;2023-04-09T06:27:50;102296.41;;;10.23;59.11
7264;BME280;3673;52.480;13.348;2023-04-09T06:30:17;102299.22;;;9.67;60.54
7264;BME280;3673;52.480;13.348;2023-04-09T06:32:44;102293.34;;;9.75;60.78
7264;BME280;3673;52.480;13.348;2023-04-09T06:35:14;102307.34;;;9.77;60.48
7264;BME280;3673;52.480;13.348;2023-04-09T06:37:41;102310.75;;;10.06;60.47
7264;BME280;3673;52.480;13.348;2023-04-09T06:40:09;102310.41;;;10.25;59.78
7264;BME280;3673;52.480;13.348;2023-04-09T06:42:36;102312.16;;;10.61;58.51
7264;BME280;3673;52.480;13.348;2023-04-09T06:45:04;102303.19;;;10.51;58.47
7264;BME280;3673;52.480;13.348;2023-04-09T06:47:33;102314.56;;;10.89;57.53
7264;BME280;3673;52.480;13.348;2023-04-09T06:49:59;102311.25;;;10.96;57.11
7264;BME280;3673;52.480;13.348;2023-04-09T06:52:28;102302.22;;;10.48;58.11
7264;BME280;3673;52.480;13.348;2023-04-09T06:54:54;102314.97;;;10.68;58.10
7264;BME280;3673;52.480;13.348;2023-04-09T06:57:21;102308.31;;;10.82;57.89
7264;BME280;3673;52.480;13.348;2023-04-09T06:59:48;102320.00;;;10.98;57.80
7264;BME280;3673;52.480;13.348;2023-04-09T07:02:15;102320.00;;;10.98;57.58
7264;BME280;3673;52.480;13.348;2023-04-09T07:04:42;102316.88;;;11.14;56.85
7264;BME280;3673;52.480;13.348;2023-04-09T07:07:09;102316.50;;;10.98;57.20
7264;BME280;3673;52.480;13.348;2023-04-09T07:09:38;102325.09;;;10.91;57.74
7264;BME280;3673;52.480;13.348;2023-04-09T07:12:05;102318.91;;;11.26;57.07
7264;BME280;3673;52.480;13.348;2023-04-09T07:14:32;102316.69;;;11.46;56.53
7264;BME280;3673;52.480;13.348;2023-04-09T07:16:59;102324.25;;;11.32;56.63
7264;BME280;3673;52.480;13.348;2023-04-09T07:19:26;102321.50;;;11.68;55.60
7264;BME280;3673;52.480;13.348;2023-04-09T07:21:52;102313.63;;;11.66;55.62
7264;BME280;3673;52.480;13.348;2023-04-09T07:24:19;102318.28;;;11.79;54.92
7264;BME280;3673;52.480;13.348;2023-04-09T07:26:47;102318.19;;;11.34;55.80
7264;BME280;3673;52.480;13.348;2023-04-09T07:29:15;102322.50;;;11.31;55.71
7264;BME280;3673;52.480;13.348;2023-04-09T07:31:41;102331.38;;;11.37;55.84
7264;BME280;3673;52.480;13.348;2023-04-09T07:34:09;102321.16;;;11.50;55.65
7264;BME280;3673;52.480;13.348;2023-04-09T07:36:36;102321.13;;;11.90;55.03
7264;BME280;3673;52.480;13.348;2023-04-09T07:39:03;102325.06;;;11.70;54.77
7264;BME280;3673;52.480;13.348;2023-04-09T07:41:30;102325.50;;;11.91;54.47
7264;BME280;3673;52.480;13.348;2023-04-09T07:43:58;102332.72;;;12.04;54.22
7264;BME280;3673;52.480;13.348;2023-04-09T07:46:27;102323.88;;;11.98;54.41
7264;BME280;3673;52.480;13.348;2023-04-09T07:48:54;102325.97;;;12.15;53.84
7264;BME280;3673;52.480;13.348;2023-04-09T07:51:21;102327.72;;;12.16;53.56
7264;BME280;3673;52.480;13.348;2023-04-09T07:53:48;102325.31;;;12.28;53.83
7264;BME280;3673;52.480;13.348;2023-04-09T07:56:15;102326.38;;;11.92;54.59
7264;BME280;3673;52.480;13.348;2023-04-09T07:58:41;102330.84;;;12.44;53.44
7264;BME280;3673;52.480;13.348;2023-04-09T08:01:10;102324.94;;;12.58;52.93
7264;BME280;3673;52.480;13.348;2023-04-09T08:03:37;102325.88;;;12.62;52.88
7264;BME280;3673;52.480;13.348;2023-04-09T08:06:04;102338.44;;;12.28;53.52
7264;BME280;3673;52.480;13.348;2023-04-09T08:08:31;102326.66;;;12.05;54.55
7264;BME280;3673;52.480;13.348;2023-04-09T08:10:58;102333.34;;;12.36;54.15
7264;BME280;3673;52.480;13.348;2023-04-09T08:13:25;102327.38;;;12.46;53.67
7264;BME280;3673;52.480;13.348;2023-04-09T08:15:52;102331.09;;;12.09;54.28
7264;BME280;3673;52.480;13.348;2023-04-09T08:18:20;102333.66;;;12.54;53.42
7264;BME280;3673;52.480;13.348;2023-04-09T08:20:47;102332.69;;;12.49;53.84
7264;BME280;3673;52.480;13.348;2023-04-09T08:23:14;102340.97;;;12.73;53.73
7264;BME280;3673;52.480;13.348;2023-04-09T08:25:41;102338.59;;;12.90;52.68
7264;BME280;3673;52.480;13.348;2023-04-09T08:28:07;102343.91;;;12.95;52.37
7264;BME280;3673;52.480;13.348;2023-04-09T08:30:34;102337.78;;;12.96;52.81
7264;BME280;3673;52.480;13.348;2023-04-09T08:33:01;102344.03;;;13.02;52.73
7264;BME280;3673;52.480;13.348;2023-04-09T08:35:30;102349.47;;;13.13;52.42
7264;BME280;3673;52.480;13.348;2023-04-09T08:37:58;102348.75;;;12.69;53.34
7264;BME280;3673;52.480;13.348;2023-04-09T08:40:25;102350.81;;;12.86;52.84
7264;BME280;3673;52.480;13.348;2023-04-09T08:42:54;102345.47;;;12.82;52.81
7264;BME280;3673;52.480;13.348;2023-04-09T08:45:22;102354.69;;;13.11;52.28
7264;BME280;3673;52.480;13.348;2023-04-09T08:47:50;102355.56;;;13.10;52.13
7264;BME280;3673;52.480;13.348;2023-04-09T08:50:18;102355.75;;;13.22;52.41
7264;BME280;3673;52.480;13.348;2023-04-09T08:52:47;102350.22;;;13.67;52.34
7264;BME280;3673;52.480;13.348;2023-04-09T08:55:14;102353.34;;;14.13;49.63
7264;BME280;3673;52.480;13.348;2023-04-09T08:57:41;102358.97;;;12.51;53.12
7264;BME280;3673;52.480;13.348;2023-04-09T09:00:10;102347.75;;;13.15;52.51
7264;BME280;3673;52.480;13.348;2023-04-09T09:02:36;102338.22;;;12.66;52.96
7264;BME280;3673;52.480;13.348;2023-04-09T09:05:05;102336.03;;;12.41;53.34
7264;BME280;3673;52.480;13.348;2023-04-09T09:07:32;102340.38;;;12.38;53.65
7264;BME280;3673;52.480;13.348;2023-04-09T09:10:01;102333.72;;;13.14;52.49
7264;BME280;3673;52.480;13.348;2023-04-09T09:12:36;102330.97;;;13.73;51.38
7264;BME280;3673;52.480;13.348;2023-04-09T09:17:54;102345.50;;;14.14;50.13
7264;BME280;3673;52.480;13.348;2023-04-09T09:20:22;102344.94;;;14.49;49.17
7264;BME280;3673;52.480;13.348;2023-04-09T09:22:51;102341.53;;;14.60;48.88
7264;BME280;3673;52.480;13.348;2023-04-09T09:25:20;102337.16;;;14.58;48.91
7264;BME280;3673;52.480;13.348;2023-04-09T09:27:48;102337.22;;;14.71;48.69
7264;BME280;3673;52.480;13.348;2023-04-09T09:30:20;102336.22;;;14.56;48.54
7264;BME280;3673;52.480;13.348;2023-04-09T09:32:51;102338.06;;;14.63;48.52
7264;BME280;3673;52.480;13.348;2023-04-09T09:35:18;102332.88;;;14.78;48.21
7264;BME280;3673;52.480;13.348;2023-04-09T09:37:45;102334.09;;;15.30;47.19
7264;BME280;3673;52.480;13.348;2023-04-09T09:40:26;102330.84;;;15.81;46.15
7264;BME280;3673;52.480;13.348;2023-04-09T09:42:54;102324.75;;;16.32;45.03
7264;BME280;3673;52.480;13.348;2023-04-09T09:45:22;102330.06;;;16.30;44.13
7264;BME280;3673;52.480;13.348;2023-04-09T09:47:50;102321.22;;;16.10;44.57
7264;BME280;3673;52.480;13.348;2023-04-09T09:50:18;102328.28;;;16.29;44.74
7264;BME280;3673;52.480;13.348;2023-04-09T09:52:46;102322.13;;;16.39;43.59
7264;BME280;3673;52.480;13.348;2023-04-09T09:55:13;102317.63;;;17.32;41.99
7264;BME280;3673;52.480;13.348;2023-04-09T09:57:43;102317.75;;;16.82;42.64
7264;BME280;3673;52.480;13.348;2023-04-09T10:00:12;102317.75;;;16.47;43.26
7264;BME280;3673;52.480;13.348;2023-04-09T10:02:47;102310.66;;;16.92;42.42
7264;BME280;3673;52.480;13.348;2023-04-09T10:05:17;102309.75;;;15.90;44.11
7264;BME280;3673;52.480;13.348;2023-04-09T10:07:47;102308.94;;;16.44;43.64
7264;BME280;3673;52.480;13.348;2023-04-09T10:10:14;102307.19;;;16.76;42.65
7264;BME280;3673;52.480;13.348;2023-04-09T10:12:42;102295.53;;;17.47;41.47
7264;BME280;3673;52.480;13.348;2023-04-09T10:15:10;102304.44;;;17.20;42.25
7264;BME280;3673;52.480;13.348;2023-04-09T10:17:37;102299.91;;;17.51;41.71
7264;BME280;3673;52.480;13.348;2023-04-09T10:20:09;102299.00;;;17.60;41.69
7264;BME280;3673;52.480;13.348;2023-04-09T10:22:38;102300.81;;;17.42;41.89
7264;BME280;3673;52.480;13.348;2023-04-09T10:25:06;102303.41;;;17.51;41.30
7264;BME280;3673;52.480;13.348;2023-04-09T10:27:33;102306.84;;;17.81;41.04
7264;BME280;3673;52.480;13.348;2023-04-09T10:30:01;102300.81;;;17.42;41.44
7264;BME280;3673;52.480;13.348;2023-04-09T10:32:34;102311.00;;;18.24;39.77
7264;BME280;3673;52.480;13.348;2023-04-09T10:35:03;102307.75;;;17.77;40.67
7264;BME280;3673;52.480;13.348;2023-04-09T10:37:29;102306.41;;;18.41;39.67
7264;BME280;3673;52.480;13.348;2023-04-09T10:39:56;102310.59;;;18.74;38.92
7264;BME280;3673;52.480;13.348;2023-04-09T10:42:29;102312.53;;;18.52;39.03
7264;BME280;3673;52.480;13.348;2023-04-09T10:45:07;102304.84;;;18.18;39.85
7264;BME280;3673;52.480;13.348;2023-04-09T10:47:36;102311.06;;;18.12;39.91
7264;BME280;3673;52.480;13.348;2023-04-09T10:50:18;102312.38;;;18.69;38.76
7264;BME280;3673;52.480;13.348;2023-04-09T10:52:51;102311.75;;;18.37;39.12
7264;BME280;3673;52.480;13.348;2023-04-09T10:55:37;102311.50;;;18.69;38.58
7264;BME280;3673;52.480;13.348;2023-04-09T10:58:04;102304.97;;;19.05;37.93
7264;BME280;3673;52.480;13.348;2023-04-09T11:00:37;102302.44;;;18.92;38.00
7264;BME280;3673;52.480;13.348;2023-04-09T11:03:19;102304.03;;;19.10;37.51
7264;BME280;3673;52.480;13.348;2023-04-09T11:06:00;102303.53;;;19.52;36.92
7264;BME280;3673;52.480;13.348;2023-04-09T11:08:28;102295.38;;;19.66;37.05
7264;BME280;3673;52.480;13.348;2023-04-09T11:10:55;102302.97;;;19.22;38.03
7264;BME280;3673;52.480;13.348;2023-04-09T11:13:25;102309.06;;;18.43;38.23
7264;BME280;3673;52.480;13.348;2023-04-09T11:15:55;102299.44;;;18.30;38.53
7264;BME280;3673;52.480;13.348;2023-04-09T11:18:24;102304.81;;;18.19;38.71
7264;BME280;3673;52.480;13.348;2023-04-09T11:20:54;102301.00;;;16.94;40.99
7264;BME280;3673;52.480;13.348;2023-04-09T11:23:21;102293.81;;;17.31;40.87
7264;BME280;3673;52.480;13.348;2023-04-09T11:25:49;102298.22;;;17.30;40.71
7264;BME280;3673;52.480;13.348;2023-04-09T11:28:17;102300.53;;;18.01;38.93
7264;BME280;3673;52.480;13.348;2023-04-09T11:30:44;102294.91;;;18.44;37.76
7264;BME280;3673;52.480;13.348;2023-04-09T11:33:13;102298.97;;;17.70;39.44
7264;BME280;3673;52.480;13.348;2023-04-09T11:35:40;102292.47;;;18.21;38.66
7264;BME280;3673;52.480;13.348;2023-04-09T11:38:07;102292.19;;;18.56;37.92
7264;BME280;3673;52.480;13.348;2023-04-09T11:40:35;102273.75;;;19.25;36.60
7264;BME280;3673;52.480;13.348;2023-04-09T11:43:08;102279.72;;;19.45;36.38
7264;BME280;3673;52.480;13.348;2023-04-09T11:45:34;102275.72;;;19.11;37.32
7264;BME280;3673;52.480;13.348;2023-04-09T11:48:02;102278.94;;;18.58;38.08
7264;BME280;3673;52.480;13.348;2023-04-09T11:50:31;102270.28;;;19.21;37.56
7264;BME280;3673;52.480;13.348;2023-04-09T11:52:58;102268.59;;;20.39;35.31
7264;BME280;3673;52.480;13.348;2023-04-09T11:55:26;102264.41;;;20.23;35.37
7264;BME280;3673;52.480;13.348;2023-04-09T11:57:57;102264.94;;;20.46;35.37
7264;BME280;3673;52.480;13.348;2023-04-09T12:00:26;102261.97;;;21.11;33.87
7264;BME280;3673;52.480;13.348;2023-04-09T12:03:00;102264.44;;;21.20;33.49
7264;BME280;3673;52.480;13.348;2023-04-09T12:05:30;102273.19;;;21.26;33.03
7264;BME280;3673;52.480;13.348;2023-04-09T12:08:01;102264.00;;;21.41;32.38
7264;BME280;3673;52.480;13.348;2023-04-09T12:10:31;102254.63;;;21.22;32.89
7264;BME280;3673;52.480;13.348;2023-04-09T12:13:04;102262.09;;;21.46;32.08
7264;BME280;3673;52.480;13.348;2023-04-09T12:15:33;102270.91;;;21.49;32.21
7264;BME280;3673;52.480;13.348;2023-04-09T12:18:00;102264.75;;;21.03;32.34
7264;BME280;3673;52.480;13.348;2023-04-09T12:20:32;102253.44;;;20.92;33.37
7264;BME280;3673;52.480;13.348;2023-04-09T12:23:00;102256.09;;;21.36;32.83
7264;BME280;3673;52.480;13.348;2023-04-09T12:25:28;102258.84;;;22.12;31.45
7264;BME280;3673;52.480;13.348;2023-04-09T12:27:56;102252.44;;;22.88;30.59
7264;BME280;3673;52.480;13.348;2023-04-09T12:30:24;102253.94;;;22.96;29.47
7264;BME280;3673;52.480;13.348;2023-04-09T12:32:52;102254.13;;;22.90;29.86
7264;BME280;3673;52.480;13.348;2023-04-09T12:35:19;102247.81;;;22.59;30.00
7264;BME280;3673;52.480;13.348;2023-04-09T12:37:48;102248.47;;;22.69;30.00
7264;BME280;3673;52.480;13.348;2023-04-09T12:40:15;102251.47;;;21.84;30.35
7264;BME280;3673;52.480;13.348;2023-04-09T12:42:43;102244.81;;;21.65;30.87
7264;BME280;3673;52.480;13.348;2023-04-09T12:45:13;102236.13;;;21.57;31.17
7264;BME280;3673;52.480;13.348;2023-04-09T12:47:41;102240.59;;;21.55;31.77
7264;BME280;3673;52.480;13.348;2023-04-09T12:50:10;102235.09;;;21.64;31.65
7264;BME280;3673;52.480;13.348;2023-04-09T12:52:37;102234.31;;;21.97;32.38
7264;BME280;3673;52.480;13.348;2023-04-09T12:55:07;102241.47;;;21.55;32.65
7264;BME280;3673;52.480;13.348;2023-04-09T12:57:37;102237.31;;;21.44;33.09
7264;BME280;3673;52.480;13.348;2023-04-09T13:00:05;102232.97;;;22.49;31.60
7264;BME280;3673;52.480;13.348;2023-04-09T13:02:32;102219.38;;;22.92;30.88
7264;BME280;3673;52.480;13.348;2023-04-09T13:04:59;102219.44;;;23.50;29.66
7264;BME280;3673;52.480;13.348;2023-04-09T13:07:26;102219.38;;;23.52;29.13
7264;BME280;3673;52.480;13.348;2023-04-09T13:09:54;102227.06;;;23.33;29.08
7264;BME280;3673;52.480;13.348;2023-04-09T13:12:22;102222.72;;;23.86;28.77